createdAt,value
2018-06-05T00:00:18.462Z,0.00
2018-06-05T00:01:18.426Z,0.00
2018-06-05T00:02:18.390Z,0.00
2018-06-05T00:03:18.355Z,0.00
2018-06-05T00:04:18.323Z,0.00
2018-06-05T00:05:18.298Z,0.00
2018-06-05T00:06:18.262Z,0.00
2018-06-05T00:07:18.232Z,0.00
2018-06-05T00:08:18.200Z,0.00
2018-06-05T00:09:18.164Z,0.00
2018-06-05T00:10:18.132Z,0.00
2018-06-05T00:11:18.093Z,0.00
2018-06-05T00:12:18.072Z,0.00
2018-06-05T00:13:18.035Z,0.00
2018-06-05T00:14:18.000Z,0.00
2018-06-05T00:15:17.966Z,0.00
2018-06-05T00:16:17.932Z,0.00
2018-06-05T00:17:17.903Z,0.00
2018-06-05T00:18:17.872Z,0.00
2018-06-05T00:19:17.841Z,0.00
2018-06-05T00:20:17.809Z,0.00
2018-06-05T00:21:17.773Z,0.00
2018-06-05T00:22:17.739Z,0.00
2018-06-05T00:23:17.704Z,0.00
2018-06-05T00:24:17.672Z,0.00
2018-06-05T00:25:17.640Z,0.00
2018-06-05T00:26:17.611Z,0.00
2018-06-05T00:27:17.581Z,0.00
2018-06-05T00:28:17.538Z,0.00
2018-06-05T00:29:17.512Z,0.00
2018-06-05T00:30:17.479Z,0.00
2018-06-05T00:31:17.446Z,0.00
2018-06-05T00:32:17.417Z,0.00
2018-06-05T00:33:17.382Z,0.00
2018-06-05T00:34:17.347Z,0.00
2018-06-05T00:35:17.311Z,0.00
2018-06-05T00:36:17.278Z,0.00
2018-06-05T00:37:17.250Z,0.00
2018-06-05T00:38:17.219Z,0.00
2018-06-05T00:39:17.191Z,0.00
2018-06-05T00:40:17.154Z,0.00
2018-06-05T00:41:17.119Z,0.00
2018-06-05T00:42:17.084Z,0.00
2018-06-05T00:43:17.047Z,0.00
2018-06-05T00:44:17.024Z,0.00
2018-06-05T00:45:16.987Z,0.00
2018-06-05T00:46:16.957Z,0.00
2018-06-05T00:47:16.918Z,0.00
2018-06-05T00:48:16.885Z,0.00
2018-06-05T00:49:16.855Z,0.00
2018-06-05T00:50:16.823Z,0.00
2018-06-05T00:51:16.794Z,0.00
2018-06-05T00:52:16.754Z,0.00
2018-06-05T00:53:16.723Z,0.00
2018-06-05T00:54:16.692Z,0.00
2018-06-05T00:55:16.664Z,0.00
2018-06-05T00:56:16.630Z,0.00
2018-06-05T00:57:16.594Z,0.00
2018-06-05T00:58:16.560Z,0.00
2018-06-05T00:59:16.521Z,0.00
2018-06-05T01:00:16.497Z,0.00
2018-06-05T01:01:16.466Z,0.00
2018-06-05T01:02:16.428Z,0.00
2018-06-05T01:03:16.389Z,0.00
2018-06-05T01:04:16.360Z,0.00
2018-06-05T01:05:16.326Z,0.00
2018-06-05T01:06:16.298Z,0.00
2018-06-05T01:07:16.266Z,0.00
2018-06-05T01:08:16.235Z,0.00
2018-06-05T01:09:16.199Z,0.00
2018-06-05T01:10:16.164Z,0.00
2018-06-05T01:11:16.129Z,0.00
2018-06-05T01:12:16.100Z,0.00
2018-06-05T01:13:16.066Z,0.00
2018-06-05T01:14:16.034Z,0.00
2018-06-05T01:15:16.008Z,0.00
2018-06-05T01:16:15.964Z,0.00
2018-06-05T01:17:15.933Z,0.00
2018-06-05T01:18:15.903Z,0.00
2018-06-05T01:19:15.872Z,0.00
2018-06-05T01:20:15.840Z,0.00
2018-06-05T01:21:15.803Z,0.00
2018-06-05T01:22:15.769Z,0.00
2018-06-05T01:23:15.733Z,0.00
2018-06-05T01:24:15.700Z,0.00
2018-06-05T01:25:15.672Z,0.00
2018-06-05T01:26:15.639Z,0.00
2018-06-05T01:27:15.608Z,0.00
2018-06-05T01:28:15.576Z,0.00
2018-06-05T01:29:15.542Z,0.00
2018-06-05T01:30:15.504Z,0.00
2018-06-05T01:31:15.470Z,0.00
2018-06-05T01:32:15.442Z,0.00
2018-06-05T01:33:15.406Z,0.00
2018-06-05T01:34:15.372Z,0.00
2018-06-05T01:35:15.338Z,0.00
2018-06-05T01:36:15.304Z,0.00
2018-06-05T01:37:15.290Z,0.00
2018-06-05T01:38:15.242Z,0.00
2018-06-05T01:39:15.210Z,0.00
2018-06-05T01:40:15.176Z,0.00
2018-06-05T01:41:15.143Z,0.00
2018-06-05T01:42:15.107Z,0.00
2018-06-05T01:43:15.071Z,0.00
2018-06-05T01:44:15.039Z,0.00
2018-06-05T01:45:15.008Z,0.00
2018-06-05T01:46:14.977Z,0.00
2018-06-05T01:47:14.945Z,0.00
2018-06-05T01:48:14.908Z,0.00
2018-06-05T01:49:14.876Z,0.00
2018-06-05T01:50:14.848Z,0.00
2018-06-05T01:51:14.812Z,0.00
2018-06-05T01:52:14.778Z,0.00
2018-06-05T01:53:14.744Z,0.00
2018-06-05T01:54:14.711Z,0.00
2018-06-05T01:55:14.671Z,0.00
2018-06-05T01:56:14.641Z,0.00
2018-06-05T01:57:14.609Z,0.00
2018-06-05T01:58:14.579Z,0.00
2018-06-05T01:59:14.547Z,0.00
2018-06-05T02:00:14.513Z,0.00
2018-06-05T02:01:14.478Z,0.00
2018-06-05T02:02:14.446Z,0.00
2018-06-05T02:03:14.408Z,0.00
2018-06-05T02:04:14.380Z,0.00
2018-06-05T02:05:14.347Z,0.00
2018-06-05T02:06:14.311Z,0.00
2018-06-05T02:07:14.276Z,0.00
2018-06-05T02:08:14.244Z,0.00
2018-06-05T02:09:14.214Z,0.00
2018-06-05T02:10:14.181Z,0.00
2018-06-05T02:11:14.150Z,0.00
2018-06-05T02:12:14.117Z,0.00
2018-06-05T02:13:14.082Z,0.00
2018-06-05T02:14:14.048Z,0.00
2018-06-05T02:15:14.010Z,0.00
2018-06-05T02:16:13.978Z,0.00
2018-06-05T02:17:13.946Z,0.00
2018-06-05T02:18:13.916Z,0.00
2018-06-05T02:19:13.882Z,0.00
2018-06-05T02:20:13.844Z,0.00
2018-06-05T02:21:13.812Z,0.00
2018-06-05T02:22:13.781Z,0.00
2018-06-05T02:23:13.750Z,0.00
2018-06-05T02:24:13.718Z,0.00
2018-06-05T02:25:13.682Z,0.00
2018-06-05T02:26:13.651Z,0.00
2018-06-05T02:27:13.611Z,0.00
2018-06-05T02:28:13.578Z,0.00
2018-06-05T02:29:13.547Z,0.00
2018-06-05T02:30:13.517Z,0.00
2018-06-05T02:31:13.484Z,0.00
2018-06-05T02:32:13.452Z,0.00
2018-06-05T02:33:13.418Z,0.00
2018-06-05T02:34:13.385Z,0.00
2018-06-05T02:35:13.345Z,0.00
2018-06-05T02:36:13.318Z,0.00
2018-06-05T02:37:13.282Z,0.00
2018-06-05T02:38:13.248Z,0.00
2018-06-05T02:39:13.214Z,0.00
2018-06-05T02:40:13.175Z,0.00
2018-06-05T02:41:13.144Z,0.00
2018-06-05T02:42:13.115Z,0.00
2018-06-05T02:43:13.083Z,0.00
2018-06-05T02:44:13.048Z,0.00
2018-06-05T02:45:13.014Z,0.00
2018-06-05T02:46:12.984Z,0.00
2018-06-05T02:47:12.940Z,0.00
2018-06-05T02:48:12.909Z,0.00
2018-06-05T02:49:12.879Z,0.00
2018-06-05T02:50:12.849Z,0.00
2018-06-05T02:51:12.817Z,0.00
2018-06-05T02:52:12.775Z,0.00
2018-06-05T02:53:12.746Z,0.00
2018-06-05T02:54:12.713Z,0.00
2018-06-05T02:55:12.681Z,0.00
2018-06-05T02:56:12.650Z,0.00
2018-06-05T02:57:12.614Z,0.00
2018-06-05T02:58:12.579Z,0.00
2018-06-05T02:59:12.540Z,0.00
2018-06-05T03:00:12.508Z,0.00
2018-06-05T03:01:12.474Z,4.00
2018-06-05T03:02:12.445Z,4.00
2018-06-05T03:03:12.410Z,0.00
2018-06-05T03:04:12.380Z,0.00
2018-06-05T03:05:12.344Z,0.00
2018-06-05T03:06:12.309Z,4.00
2018-06-05T03:07:12.273Z,4.00
2018-06-05T03:08:12.246Z,0.00
2018-06-05T03:09:12.209Z,4.00
2018-06-05T03:10:12.174Z,4.00
2018-06-05T03:11:12.135Z,8.00
2018-06-05T03:12:12.103Z,4.00
2018-06-05T03:13:12.072Z,4.00
2018-06-05T03:14:12.041Z,8.00
2018-06-05T03:15:12.013Z,4.00
2018-06-05T03:16:11.974Z,8.00
2018-06-05T03:17:11.943Z,8.00
2018-06-05T03:18:11.906Z,8.00
2018-06-05T03:19:11.866Z,8.00
2018-06-05T03:20:11.833Z,8.00
2018-06-05T03:21:11.803Z,12.00
2018-06-05T03:22:11.777Z,16.00
2018-06-05T03:23:11.739Z,16.00
2018-06-05T03:24:11.700Z,12.00
2018-06-05T03:25:11.669Z,16.00
2018-06-05T03:26:11.637Z,16.00
2018-06-05T03:27:11.606Z,16.00
2018-06-05T03:28:11.571Z,20.00
2018-06-05T03:29:11.536Z,16.00
2018-06-05T03:30:11.502Z,20.00
2018-06-05T03:31:11.468Z,24.00
2018-06-05T03:32:11.431Z,20.00
2018-06-05T03:33:11.399Z,24.00
2018-06-05T03:34:11.368Z,24.00
2018-06-05T03:35:11.334Z,24.00
2018-06-05T03:36:11.303Z,28.00
2018-06-05T03:37:11.268Z,24.00
2018-06-05T03:38:11.230Z,28.00
2018-06-05T03:39:11.194Z,32.00
2018-06-05T03:40:11.168Z,32.00
2018-06-05T03:41:11.133Z,32.00
2018-06-05T03:42:11.096Z,36.00
2018-06-05T03:43:11.059Z,36.00
2018-06-05T03:44:11.029Z,36.00
2018-06-05T03:45:10.994Z,40.00
2018-06-05T03:46:10.963Z,44.00
2018-06-05T03:47:10.933Z,44.00
2018-06-05T03:48:10.898Z,48.00
2018-06-05T03:49:10.860Z,44.00
2018-06-05T03:50:10.826Z,48.00
2018-06-05T03:51:10.793Z,52.00
2018-06-05T03:52:10.758Z,56.00
2018-06-05T03:53:10.726Z,60.00
2018-06-05T03:54:10.694Z,64.00
2018-06-05T03:55:10.662Z,64.00
2018-06-05T03:56:10.627Z,72.00
2018-06-05T03:57:10.620Z,72.00
2018-06-05T03:58:10.559Z,72.00
2018-06-05T03:59:10.540Z,72.00
2018-06-05T04:00:10.492Z,72.00
2018-06-05T04:01:10.456Z,76.00
2018-06-05T04:02:10.420Z,80.00
2018-06-05T04:03:10.388Z,80.00
2018-06-05T04:04:10.350Z,80.00
2018-06-05T04:05:10.319Z,84.00
2018-06-05T04:06:10.294Z,88.00
2018-06-05T04:07:10.259Z,92.00
2018-06-05T04:08:10.222Z,100.00
2018-06-05T04:09:10.186Z,104.00
2018-06-05T04:10:10.151Z,108.00
2018-06-05T04:11:10.114Z,112.00
2018-06-05T04:12:10.087Z,112.00
2018-06-05T04:13:10.051Z,116.00
2018-06-05T04:14:10.019Z,116.00
2018-06-05T04:15:09.978Z,120.00
2018-06-05T04:16:09.947Z,120.00
2018-06-05T04:17:09.917Z,124.00
2018-06-05T04:18:09.882Z,128.00
2018-06-05T04:19:09.850Z,136.00
2018-06-05T04:20:09.819Z,140.00
2018-06-05T04:21:09.781Z,148.00
2018-06-05T04:22:09.746Z,156.00
2018-06-05T04:23:09.707Z,168.00
2018-06-05T04:24:09.673Z,168.00
2018-06-05T04:25:09.644Z,168.00
2018-06-05T04:26:09.612Z,180.00
2018-06-05T04:27:09.633Z,196.00
2018-06-05T04:28:09.539Z,188.00
2018-06-05T04:29:09.509Z,180.00
2018-06-05T04:30:09.480Z,180.00
2018-06-05T04:31:09.447Z,188.00
2018-06-05T04:32:09.412Z,196.00
2018-06-05T04:33:09.376Z,192.00
2018-06-05T04:34:09.338Z,196.00
2018-06-05T04:35:09.302Z,196.00
2018-06-05T04:36:09.307Z,204.00
2018-06-05T04:37:09.236Z,196.00
2018-06-05T04:38:09.206Z,196.00
2018-06-05T04:39:09.173Z,184.00
2018-06-05T04:40:09.143Z,184.00
2018-06-05T04:41:09.103Z,180.00
2018-06-05T04:42:09.067Z,180.00
2018-06-05T04:43:09.034Z,180.00
2018-06-05T04:44:09.004Z,180.00
2018-06-05T04:45:08.967Z,188.00
2018-06-05T04:46:08.933Z,196.00
2018-06-05T04:47:08.896Z,208.00
2018-06-05T04:48:08.862Z,204.00
2018-06-05T04:49:08.830Z,208.00
2018-06-05T04:50:08.798Z,216.00
2018-06-05T04:51:08.767Z,220.00
2018-06-05T04:52:08.732Z,228.00
2018-06-05T04:53:08.755Z,232.00
2018-06-05T04:54:08.659Z,244.00
2018-06-05T04:55:08.625Z,260.00
2018-06-05T04:56:08.589Z,268.00
2018-06-05T04:57:08.557Z,276.00
2018-06-05T04:58:08.524Z,288.00
2018-06-05T04:59:08.494Z,320.00
2018-06-05T05:00:08.452Z,324.00
2018-06-05T05:01:08.455Z,352.00
2018-06-05T05:02:08.390Z,344.00
2018-06-05T05:03:08.355Z,372.00
2018-06-05T05:04:08.323Z,368.00
2018-06-05T05:05:08.286Z,368.00
2018-06-05T05:06:08.251Z,364.00
2018-06-05T05:07:08.212Z,352.00
2018-06-05T05:08:08.183Z,352.00
2018-06-05T05:09:08.144Z,320.00
2018-06-05T05:10:08.117Z,324.00
2018-06-05T05:11:08.081Z,316.00
2018-06-05T05:12:08.046Z,320.00
2018-06-05T05:13:08.015Z,300.00
2018-06-05T05:14:07.973Z,308.00
2018-06-05T05:15:07.943Z,308.00
2018-06-05T05:16:07.911Z,320.00
2018-06-05T05:17:07.878Z,320.00
2018-06-05T05:18:07.837Z,340.00
2018-06-05T05:19:07.809Z,364.00
2018-06-05T05:20:07.772Z,360.00
2018-06-05T05:21:07.734Z,364.00
2018-06-05T05:22:07.708Z,372.00
2018-06-05T05:23:07.674Z,360.00
2018-06-05T05:24:07.638Z,356.00
2018-06-05T05:25:07.605Z,356.00
2018-06-05T05:26:07.566Z,360.00
2018-06-05T05:27:07.533Z,368.00
2018-06-05T05:28:07.500Z,360.00
2018-06-05T05:29:07.466Z,364.00
2018-06-05T05:30:07.434Z,368.00
2018-06-05T05:31:07.399Z,360.00
2018-06-05T05:32:07.363Z,368.00
2018-06-05T05:33:07.323Z,376.00
2018-06-05T05:34:07.298Z,368.00
2018-06-05T05:35:07.263Z,372.00
2018-06-05T05:36:07.230Z,380.00
2018-06-05T05:37:07.196Z,356.00
2018-06-05T05:38:07.154Z,344.00
2018-06-05T05:39:07.154Z,352.00
2018-06-05T05:40:07.091Z,356.00
2018-06-05T05:41:07.052Z,364.00
2018-06-05T05:42:07.026Z,368.00
2018-06-05T05:43:06.989Z,368.00
2018-06-05T05:44:06.957Z,372.00
2018-06-05T05:45:06.923Z,372.00
2018-06-05T05:46:06.881Z,372.00
2018-06-05T05:47:06.872Z,396.00
2018-06-05T05:48:06.823Z,420.00
2018-06-05T05:49:06.788Z,436.00
2018-06-05T05:50:06.744Z,432.00
2018-06-05T05:51:06.716Z,432.00
2018-06-05T05:52:06.681Z,460.00
2018-06-05T05:53:06.641Z,476.00
2018-06-05T05:54:06.613Z,472.00
2018-06-05T05:55:06.580Z,456.00
2018-06-05T05:56:06.546Z,476.00
2018-06-05T05:57:06.513Z,472.00
2018-06-05T05:58:06.479Z,468.00
2018-06-05T05:59:06.443Z,472.00
2018-06-05T06:00:06.410Z,488.00
2018-06-05T06:01:06.371Z,512.00
2018-06-05T06:02:06.343Z,548.00
2018-06-05T06:03:06.307Z,532.00
2018-06-05T06:04:06.272Z,540.00
2018-06-05T06:05:06.235Z,540.00
2018-06-05T06:06:06.207Z,536.00
2018-06-05T06:07:06.172Z,556.00
2018-06-05T06:08:06.136Z,564.00
2018-06-05T06:09:06.103Z,568.00
2018-06-05T06:10:06.060Z,556.00
2018-06-05T06:11:06.032Z,564.00
2018-06-05T06:12:05.999Z,564.00
2018-06-05T06:13:05.959Z,580.00
2018-06-05T06:14:05.935Z,588.00
2018-06-05T06:15:05.898Z,596.00
2018-06-05T06:16:05.866Z,612.00
2018-06-05T06:17:05.831Z,644.00
2018-06-05T06:18:05.789Z,660.00
2018-06-05T06:19:05.762Z,680.00
2018-06-05T06:20:05.728Z,660.00
2018-06-05T06:21:05.693Z,652.00
2018-06-05T06:22:05.655Z,644.00
2018-06-05T06:23:05.623Z,656.00
2018-06-05T06:24:05.589Z,680.00
2018-06-05T06:25:05.550Z,676.00
2018-06-05T06:26:05.527Z,684.00
2018-06-05T06:27:05.495Z,688.00
2018-06-05T06:28:05.459Z,704.00
2018-06-05T06:29:05.421Z,704.00
2018-06-05T06:30:05.379Z,736.00
2018-06-05T06:31:05.349Z,752.00
2018-06-05T06:32:05.316Z,748.00
2018-06-05T06:33:05.277Z,772.00
2018-06-05T06:34:05.252Z,764.00
2018-06-05T06:35:05.215Z,760.00
2018-06-05T06:36:05.181Z,768.00
2018-06-05T06:37:05.143Z,784.00
2018-06-05T06:38:05.116Z,800.00
2018-06-05T06:39:05.080Z,808.00
2018-06-05T06:40:05.047Z,828.00
2018-06-05T06:41:05.016Z,832.00
2018-06-05T06:42:04.993Z,820.00
2018-06-05T06:43:04.942Z,832.00
2018-06-05T06:44:04.909Z,840.00
2018-06-05T06:45:04.872Z,828.00
2018-06-05T06:46:04.844Z,836.00
2018-06-05T06:47:04.809Z,788.00
2018-06-05T06:48:04.775Z,772.00
2018-06-05T06:49:04.809Z,780.00
2018-06-05T06:50:04.702Z,800.00
2018-06-05T06:51:04.672Z,816.00
2018-06-05T06:52:04.640Z,824.00
2018-06-05T06:53:04.605Z,824.00
2018-06-05T06:54:04.564Z,812.00
2018-06-05T06:55:04.536Z,836.00
2018-06-05T06:56:04.501Z,848.00
2018-06-05T06:57:04.464Z,852.00
2018-06-05T06:58:04.437Z,848.00
2018-06-05T06:59:04.404Z,840.00
2018-06-05T07:00:04.368Z,876.00
2018-06-05T07:01:04.336Z,868.00
2018-06-05T07:02:04.295Z,868.00
2018-06-05T07:03:04.264Z,864.00
2018-06-05T07:04:04.232Z,888.00
2018-06-05T07:05:04.191Z,948.00
2018-06-05T07:06:04.165Z,976.00
2018-06-05T07:07:04.132Z,964.00
2018-06-05T07:08:04.095Z,980.00
2018-06-05T07:09:04.057Z,984.00
2018-06-05T07:10:04.045Z,924.00
2018-06-05T07:11:03.995Z,848.00
2018-06-05T07:12:03.960Z,812.00
2018-06-05T07:13:03.929Z,772.00
2018-06-05T07:14:03.889Z,752.00
2018-06-05T07:15:03.858Z,736.00
2018-06-05T07:16:03.823Z,720.00
2018-06-05T07:17:03.786Z,696.00
2018-06-05T07:18:03.759Z,716.00
2018-06-05T07:19:03.724Z,728.00
2018-06-05T07:20:03.690Z,764.00
2018-06-05T07:21:03.658Z,816.00
2018-06-05T07:22:03.616Z,864.00
2018-06-05T07:23:03.586Z,912.00
2018-06-05T07:24:03.586Z,1012.00
2018-06-05T07:25:03.522Z,1120.00
2018-06-05T07:26:03.479Z,1184.00
2018-06-05T07:27:03.450Z,1188.00
2018-06-05T07:28:03.419Z,1168.00
2018-06-05T07:29:03.380Z,1140.00
2018-06-05T07:30:03.352Z,1116.00
2018-06-05T07:31:03.316Z,1080.00
2018-06-05T07:32:03.285Z,1084.00
2018-06-05T07:33:03.251Z,1084.00
2018-06-05T07:34:03.213Z,1084.00
2018-06-05T07:35:03.179Z,1056.00
2018-06-05T07:36:03.145Z,1060.00
2018-06-05T07:37:03.109Z,1072.00
2018-06-05T07:38:03.080Z,1104.00
2018-06-05T07:39:03.045Z,1136.00
2018-06-05T07:40:03.011Z,1148.00
2018-06-05T07:41:02.971Z,1240.00
2018-06-05T07:42:02.944Z,1312.00
2018-06-05T07:43:02.908Z,1304.00
2018-06-05T07:44:02.875Z,1272.00
2018-06-05T07:45:02.843Z,1284.00
2018-06-05T07:46:02.805Z,1364.00
2018-06-05T07:47:02.772Z,1360.00
2018-06-05T07:48:02.739Z,1276.00
2018-06-05T07:49:02.699Z,1212.00
2018-06-05T07:50:02.719Z,1208.00
2018-06-05T07:51:02.641Z,1272.00
2018-06-05T07:52:02.604Z,1392.00
2018-06-05T07:53:02.573Z,1608.00
2018-06-05T07:54:02.530Z,1788.00
2018-06-05T07:55:02.538Z,1708.00
2018-06-05T07:56:02.468Z,1600.00
2018-06-05T07:57:02.437Z,1484.00
2018-06-05T07:58:02.394Z,1376.00
2018-06-05T07:59:02.364Z,1364.00
2018-06-05T08:00:02.331Z,1400.00
2018-06-05T08:01:02.294Z,1364.00
2018-06-05T08:02:02.266Z,1336.00
2018-06-05T08:03:02.231Z,1316.00
2018-06-05T08:04:02.197Z,1292.00
2018-06-05T08:05:02.166Z,1292.00
2018-06-05T08:06:02.124Z,1332.00
2018-06-05T08:07:02.093Z,1456.00
2018-06-05T08:08:02.060Z,1620.00
2018-06-05T08:09:02.022Z,1792.00
2018-06-05T08:10:01.997Z,1884.00
2018-06-05T08:11:01.961Z,1956.00
2018-06-05T08:12:01.926Z,1916.00
2018-06-05T08:13:01.886Z,1804.00
2018-06-05T08:14:01.861Z,1740.00
2018-06-05T08:15:01.828Z,1716.00
2018-06-05T08:16:01.793Z,1684.00
2018-06-05T08:17:01.760Z,1700.00
2018-06-05T08:18:01.723Z,1724.00
2018-06-05T08:19:01.695Z,1768.00
2018-06-05T08:20:01.658Z,1860.00
2018-06-05T08:21:01.616Z,1968.00
2018-06-05T08:22:01.594Z,2100.00
2018-06-05T08:23:01.556Z,2224.00
2018-06-05T08:24:01.522Z,2204.00
2018-06-05T08:25:01.492Z,2200.00
2018-06-05T08:26:01.446Z,2208.00
2018-06-05T08:27:01.419Z,2168.00
2018-06-05T08:28:01.389Z,2168.00
2018-06-05T08:29:01.355Z,2164.00
2018-06-05T08:30:01.319Z,2164.00
2018-06-05T08:31:01.289Z,2188.00
2018-06-05T08:32:01.252Z,2280.00
2018-06-05T08:33:01.217Z,2368.00
2018-06-05T08:34:01.187Z,2496.00
2018-06-05T08:35:01.152Z,2612.00
2018-06-05T08:36:01.119Z,2592.00
2018-06-05T08:37:01.087Z,2500.00
2018-06-05T08:38:01.093Z,2332.00
2018-06-05T08:39:01.018Z,2188.00
2018-06-05T08:40:00.982Z,2140.00
2018-06-05T08:41:00.947Z,2156.00
2018-06-05T08:42:00.918Z,2180.00
2018-06-05T08:43:00.887Z,2208.00
2018-06-05T08:44:00.850Z,2220.00
2018-06-05T08:45:00.811Z,2224.00
2018-06-05T08:46:00.786Z,2240.00
2018-06-05T08:47:00.752Z,2268.00
2018-06-05T08:48:00.727Z,2308.00
2018-06-05T08:49:00.685Z,2348.00
2018-06-05T08:50:00.648Z,2360.00
2018-06-05T08:51:00.615Z,2332.00
2018-06-05T08:52:00.583Z,2340.00
2018-06-05T08:53:00.545Z,2388.00
2018-06-05T08:54:00.519Z,2444.00
2018-06-05T08:55:00.484Z,2580.00
2018-06-05T08:56:00.450Z,2696.00
2018-06-05T08:57:00.420Z,2764.00
2018-06-05T08:58:00.378Z,2764.00
2018-06-05T08:59:00.349Z,2740.00
2018-06-05T09:00:00.341Z,2820.00
2018-06-05T09:01:00.285Z,2940.00
2018-06-05T09:02:00.247Z,3040.00
2018-06-05T09:03:00.216Z,3132.00
2018-06-05T09:04:00.184Z,3152.00
2018-06-05T09:05:00.144Z,3128.00
2018-06-05T09:06:00.121Z,3088.00
2018-06-05T09:07:00.086Z,3052.00
2018-06-05T09:08:00.055Z,3008.00
2018-06-05T09:09:00.026Z,2968.00
2018-06-05T09:09:59.981Z,2940.00
2018-06-05T09:10:59.959Z,2940.00
2018-06-05T09:11:59.920Z,2924.00
2018-06-05T09:12:59.880Z,2904.00
2018-06-05T09:13:59.861Z,2888.00
2018-06-05T09:14:59.819Z,2820.00
2018-06-05T09:15:59.787Z,2756.00
2018-06-05T09:16:59.751Z,2724.00
2018-06-05T09:17:59.725Z,2764.00
2018-06-05T09:18:59.689Z,2828.00
2018-06-05T09:19:59.657Z,2916.00
2018-06-05T09:20:59.626Z,2960.00
2018-06-05T09:21:59.585Z,2960.00
2018-06-05T09:22:59.558Z,2972.00
2018-06-05T09:23:59.526Z,3012.00
2018-06-05T09:24:59.490Z,3080.00
2018-06-05T09:25:59.465Z,3172.00
2018-06-05T09:26:59.428Z,3268.00
2018-06-05T09:27:59.395Z,3376.00
2018-06-05T09:28:59.400Z,3400.00
2018-06-05T09:29:59.325Z,3332.00
2018-06-05T09:30:59.297Z,3304.00
2018-06-05T09:31:59.265Z,3316.00
2018-06-05T09:32:59.232Z,3368.00
2018-06-05T09:33:59.192Z,3464.00
2018-06-05T09:34:59.163Z,3560.00
2018-06-05T09:35:59.824Z,3616.00
2018-06-05T09:36:59.093Z,3616.00
2018-06-05T09:37:59.070Z,3608.00
2018-06-05T09:38:59.035Z,3608.00
2018-06-05T09:39:59.002Z,3584.00
2018-06-05T09:40:58.972Z,3516.00
2018-06-05T09:41:58.934Z,3452.00
2018-06-05T09:42:58.902Z,3476.00
2018-06-05T09:43:58.870Z,3560.00
2018-06-05T09:44:58.834Z,3672.00
2018-06-05T09:45:58.808Z,3860.00
2018-06-05T09:46:58.799Z,4084.00
2018-06-05T09:47:58.740Z,4360.00
2018-06-05T09:48:58.702Z,4636.00
2018-06-05T09:49:58.682Z,4836.00
2018-06-05T09:50:58.645Z,4964.00
2018-06-05T09:51:58.615Z,4992.00
2018-06-05T09:52:58.581Z,4956.00
2018-06-05T09:53:58.541Z,4912.00
2018-06-05T09:54:58.512Z,4964.00
2018-06-05T09:55:58.479Z,5008.00
2018-06-05T09:56:58.442Z,5068.00
2018-06-05T09:57:58.523Z,5128.00
2018-06-05T09:58:58.386Z,5216.00
2018-06-05T09:59:58.357Z,5244.00
2018-06-05T10:00:58.323Z,5192.00
2018-06-05T10:01:58.283Z,5172.00
2018-06-05T10:02:58.254Z,5240.00
2018-06-05T10:03:58.244Z,5388.00
2018-06-05T10:04:58.192Z,5588.00
2018-06-05T10:05:58.154Z,5296.00
2018-06-05T10:06:58.126Z,5076.00
2018-06-05T10:07:58.094Z,4904.00
2018-06-05T10:08:58.058Z,4784.00
2018-06-05T10:09:58.032Z,4684.00
2018-06-05T10:10:58.002Z,4620.00
2018-06-05T10:11:57.969Z,4556.00
2018-06-05T10:12:57.946Z,4504.00
2018-06-05T10:13:57.898Z,4480.00
2018-06-05T10:14:57.870Z,4480.00
2018-06-05T10:15:57.839Z,4528.00
2018-06-05T10:16:57.800Z,4580.00
2018-06-05T10:17:57.778Z,4608.00
2018-06-05T10:18:57.753Z,4504.00
2018-06-05T10:19:57.710Z,4448.00
2018-06-05T10:20:57.675Z,4448.00
2018-06-05T10:21:57.654Z,4448.00
2018-06-05T10:22:57.616Z,4376.00
2018-06-05T10:23:57.584Z,4348.00
2018-06-05T10:24:57.555Z,4364.00
2018-06-05T10:25:57.515Z,4392.00
2018-06-05T10:26:57.488Z,4468.00
2018-06-05T10:27:57.457Z,4592.00
2018-06-05T10:28:57.420Z,4760.00
2018-06-05T10:29:57.397Z,4888.00
2018-06-05T10:30:57.362Z,4976.00
2018-06-05T10:31:57.330Z,5064.00
2018-06-05T10:32:57.300Z,5144.00
2018-06-05T10:33:57.259Z,5312.00
2018-06-05T10:34:57.235Z,5584.00
2018-06-05T10:35:57.204Z,5872.00
2018-06-05T10:36:57.172Z,6072.00
2018-06-05T10:37:57.133Z,6096.00
2018-06-05T10:38:57.108Z,6104.00
2018-06-05T10:39:57.075Z,6048.00
2018-06-05T10:40:57.037Z,6052.00
2018-06-05T10:41:57.018Z,6124.00
2018-06-05T10:42:56.981Z,6152.00
2018-06-05T10:43:56.949Z,6100.00
2018-06-05T10:44:56.921Z,6044.00
2018-06-05T10:45:56.881Z,5980.00
2018-06-05T10:46:56.854Z,5908.00
2018-06-05T10:47:56.822Z,5804.00
2018-06-05T10:48:56.786Z,5824.00
2018-06-05T10:49:56.763Z,5932.00
2018-06-05T10:50:56.730Z,6012.00
2018-06-05T10:51:56.697Z,6100.00
2018-06-05T10:52:56.660Z,6228.00
2018-06-05T10:53:56.637Z,6232.00
2018-06-05T10:54:56.603Z,6204.00
2018-06-05T10:55:56.574Z,6092.00
2018-06-05T10:56:56.542Z,6060.00
2018-06-05T10:57:56.504Z,6112.00
2018-06-05T10:58:56.476Z,6148.00
2018-06-05T10:59:56.449Z,6248.00
2018-06-05T11:00:56.411Z,6356.00
2018-06-05T11:01:56.386Z,6580.00
2018-06-05T11:02:56.353Z,6584.00
2018-06-05T11:03:56.326Z,6516.00
2018-06-05T11:04:56.292Z,6252.00
2018-06-05T11:05:56.259Z,6232.00
2018-06-05T11:06:56.227Z,6204.00
2018-06-05T11:07:56.198Z,6164.00
2018-06-05T11:08:56.168Z,6120.00
2018-06-05T11:09:56.130Z,6080.00
2018-06-05T11:10:56.102Z,5952.00
2018-06-05T11:11:56.071Z,5684.00
2018-06-05T11:12:56.035Z,5628.00
2018-06-05T11:13:56.015Z,5732.00
2018-06-05T11:14:55.980Z,6260.00
2018-06-05T11:15:55.949Z,7432.00
2018-06-05T11:16:55.922Z,8144.00
2018-06-05T11:17:55.880Z,7748.00
2018-06-05T11:18:55.853Z,7700.00
2018-06-05T11:19:55.824Z,7224.00
2018-06-05T11:20:55.789Z,6724.00
2018-06-05T11:21:55.764Z,6644.00
2018-06-05T11:22:55.732Z,6668.00
2018-06-05T11:23:55.699Z,6284.00
2018-06-05T11:24:55.666Z,6140.00
2018-06-05T11:25:55.641Z,5972.00
2018-06-05T11:26:55.609Z,6008.00
2018-06-05T11:27:55.578Z,6124.00
2018-06-05T11:28:55.550Z,6372.00
2018-06-05T11:29:55.509Z,6944.00
2018-06-05T11:30:55.484Z,7052.00
2018-06-05T11:31:55.455Z,7680.00
2018-06-05T11:32:55.418Z,6288.00
2018-06-05T11:33:55.395Z,5924.00
2018-06-05T11:34:55.364Z,6056.00
2018-06-05T11:35:55.331Z,6488.00
2018-06-05T11:36:55.350Z,7016.00
2018-06-05T11:37:55.264Z,8024.00
2018-06-05T11:38:55.239Z,6404.00
2018-06-05T11:39:55.215Z,6056.00
2018-06-05T11:40:55.181Z,6000.00
2018-06-05T11:41:55.143Z,5956.00
2018-06-05T11:42:55.117Z,6160.00
2018-06-05T11:43:55.089Z,5692.00
2018-06-05T11:44:55.051Z,5688.00
2018-06-05T11:45:55.032Z,6020.00
2018-06-05T11:46:55.052Z,6260.00
2018-06-05T11:47:54.968Z,6564.00
2018-06-05T11:48:54.938Z,6912.00
2018-06-05T11:49:54.902Z,6504.00
2018-06-05T11:50:54.874Z,7160.00
2018-06-05T11:51:54.844Z,8148.00
2018-06-05T11:52:54.806Z,7836.00
2018-06-05T11:53:54.787Z,7388.00
2018-06-05T11:54:54.755Z,7872.00
2018-06-05T11:55:54.721Z,7480.00
2018-06-05T11:56:54.690Z,7048.00
2018-06-05T11:57:54.666Z,6368.00
2018-06-05T11:58:54.634Z,5844.00
2018-06-05T11:59:54.609Z,5704.00
2018-06-05T12:00:54.642Z,5544.00
2018-06-05T12:01:54.539Z,5424.00
2018-06-05T12:02:54.510Z,5524.00
2018-06-05T12:03:54.477Z,5544.00
2018-06-05T12:04:54.444Z,6236.00
2018-06-05T12:05:54.422Z,5432.00
2018-06-05T12:06:54.391Z,5832.00
2018-06-05T12:07:54.364Z,7428.00
2018-06-05T12:08:54.332Z,6312.00
2018-06-05T12:09:54.294Z,7272.00
2018-06-05T12:10:54.268Z,6992.00
2018-06-05T12:11:54.241Z,7048.00
2018-06-05T12:12:54.211Z,6856.00
2018-06-05T12:13:54.173Z,6728.00
2018-06-05T12:14:54.147Z,5400.00
2018-06-05T12:15:54.122Z,5616.00
2018-06-05T12:16:54.082Z,7428.00
2018-06-05T12:17:54.061Z,7760.00
2018-06-05T12:18:54.029Z,6988.00
2018-06-05T12:19:53.998Z,5612.00
2018-06-05T12:20:53.969Z,5536.00
2018-06-05T12:21:53.937Z,5796.00
2018-06-05T12:22:53.905Z,7096.00
2018-06-05T12:23:53.879Z,6916.00
2018-06-05T12:24:53.841Z,7528.00
2018-06-05T12:25:53.821Z,6072.00
2018-06-05T12:26:53.791Z,6844.00
2018-06-05T12:27:53.757Z,6104.00
2018-06-05T12:28:53.723Z,6960.00
2018-06-05T12:29:53.701Z,6888.00
2018-06-05T12:30:53.669Z,7040.00
2018-06-05T12:31:53.641Z,5816.00